Thunder radar more information blitzortung!


Radar de pluja more information rain snow radar


Visita la nostra xarxa de llocs de meteo:

Template documentation
and downloads

And another site



No particular awareness of the weather is required.    There are no Weather-warnings

Pagina Historial Weather Underground text

Diari Resum May 14, 2016 Unitats:  Mètric    Imperial   Tant
« Previous Dia
SegĂźent Dia »
Diari Setmana Mensual Anual Personalitzada
  Maxima: Minima: Media:
Temperatura: 26.7 °C 11.2 °C 18.5 °C
Punt de rosada: 11.7 °C 6.3 °C 9.8 °C
Humitat: 75 % 35 % 59 %
Wind Speed: 22.2 km/h 0.0 km/h 7.2 km/h
RĂ fegues de vent: 22.2 km/h - -
Vent:- - ESE
Pression baro: 1016.8 hPa 1010.0 hPa -
Precipitacions: 0.0 mm    
Historical Graphs
 
 
Dades de taula per May 14, 2016
Temps Temperatura Punt de rosada Pression baro Vent Wind Speed RĂ fegues de vent Humitat Rainfall Rate (Hourly)
00:00 11.8 °C 7.5 °C 1010.7 hPa Calm     75 % 0.0 mm
00:01 14.6 °C 10.2 °C 1010.0 hPa Calm     75 % 0.0 mm
00:06 14.5 °C 10.1 °C 1010.0 hPa WSW 1.9 km/h   75 % 0.0 mm
00:10 11.8 °C 7.3 °C 1010.7 hPa NW 1.6 km/h 3.2 km/h 74 % 0.0 mm
00:20 11.7 °C 7.2 °C 1010.7 hPa NNW 1.6 km/h 3.2 km/h 74 % 0.0 mm
00:30 11.7 °C 7.2 °C 1010.7 hPa West 1.6 km/h 4.8 km/h 74 % 0.0 mm
00:40 11.7 °C 7.0 °C 1010.7 hPa North 1.6 km/h 4.8 km/h 73 % 0.0 mm
01:00 11.7 °C 6.8 °C 1010.7 hPa Calm   3.2 km/h 72 % 0.0 mm
01:10 11.6 °C 6.7 °C 1010.7 hPa WNW 1.6 km/h 1.6 km/h 72 % 0.0 mm
01:20 11.3 °C 6.4 °C 1010.7 hPa Calm   3.2 km/h 72 % 0.0 mm
01:30 11.2 °C 6.3 °C 1011.7 hPa Calm   3.2 km/h 72 % 0.0 mm
01:40 11.2 °C 6.3 °C 1011.7 hPa WSW 1.6 km/h 3.2 km/h 72 % 0.0 mm
01:50 11.2 °C 6.3 °C 1011.7 hPa SSE 1.6 km/h 3.2 km/h 72 % 0.0 mm
02:00 11.2 °C 6.3 °C 1011.7 hPa Calm   1.6 km/h 72 % 0.0 mm
02:10 11.2 °C 6.3 °C 1011.7 hPa East 3.2 km/h 3.2 km/h 72 % 0.0 mm
02:20 11.5 °C 6.6 °C 1011.7 hPa ENE 1.6 km/h 4.8 km/h 72 % 0.0 mm
02:30 11.7 °C 6.8 °C 1011.7 hPa NE 1.6 km/h 3.2 km/h 72 % 0.0 mm
02:40 12.0 °C 6.9 °C 1011.7 hPa North 1.6 km/h 3.2 km/h 71 % 0.0 mm
02:50 12.6 °C 7.3 °C 1011.7 hPa NE 1.6 km/h 4.8 km/h 70 % 0.0 mm
03:00 12.9 °C 7.6 °C 1011.7 hPa NE 3.2 km/h 4.8 km/h 70 % 0.0 mm
03:10 13.4 °C 7.8 °C 1011.7 hPa NNE 1.6 km/h 4.8 km/h 69 % 0.0 mm
03:20 13.7 °C 7.9 °C 1011.7 hPa North 1.6 km/h 4.8 km/h 68 % 0.0 mm
03:30 13.9 °C 8.1 °C 1011.7 hPa NNE 4.8 km/h 4.8 km/h 68 % 0.0 mm
03:40 13.9 °C 7.9 °C 1011.7 hPa NE 4.8 km/h 8.0 km/h 67 % 0.0 mm
03:50 14.2 °C 8.2 °C 1011.7 hPa NE 3.2 km/h 6.4 km/h 67 % 0.0 mm
04:00 14.7 °C 8.4 °C 1011.7 hPa NE 4.8 km/h 6.4 km/h 66 % 0.0 mm
04:10 14.7 °C 8.4 °C 1011.7 hPa ENE 3.2 km/h 6.4 km/h 66 % 0.0 mm
04:20 15.4 °C 8.8 °C 1011.7 hPa NE 1.6 km/h 4.8 km/h 65 % 0.0 mm
04:30 15.4 °C 8.8 °C 1012.8 hPa NE 4.8 km/h 9.7 km/h 65 % 0.0 mm
04:40 16.0 °C 9.4 °C 1011.7 hPa NE 3.2 km/h 8.0 km/h 65 % 0.0 mm
04:50 16.3 °C 9.5 °C 1011.7 hPa NNE 3.2 km/h 8.0 km/h 64 % 0.0 mm
05:00 16.8 °C 9.9 °C 1011.7 hPa NE 3.2 km/h 8.0 km/h 64 % 0.0 mm
10:00 16.7 °C 9.8 °C 1011.7 hPa ENE 9.3 km/h 9.3 km/h 64 % 0.0 mm
10:05 16.8 °C 9.7 °C 1011.7 hPa ENE 9.0 km/h 9.0 km/h 63 % 0.0 mm
10:10 16.8 °C 9.7 °C 1011.7 hPa NE 9.3 km/h 9.3 km/h 63 % 0.0 mm
10:15 16.7 °C 9.6 °C 1011.7 hPa NNE 8.7 km/h 8.7 km/h 63 % 0.0 mm
10:20 16.9 °C 9.8 °C 1011.7 hPa NE 7.4 km/h 7.4 km/h 63 % 0.0 mm
10:25 17.1 °C 9.5 °C 1011.7 hPa NNE 9.5 km/h 9.5 km/h 61 % 0.0 mm
10:30 17.1 °C 9.5 °C 1011.7 hPa NNE 9.3 km/h 9.3 km/h 61 % 0.0 mm
10:35 17.2 °C 9.6 °C 1011.7 hPa ENE 9.3 km/h 9.3 km/h 61 % 0.0 mm
10:40 17.6 °C 10.0 °C 1011.7 hPa ENE 9.3 km/h 9.3 km/h 61 % 0.0 mm
10:45 17.6 °C 10.0 °C 1011.7 hPa ENE 7.4 km/h 7.6 km/h 61 % 0.0 mm
10:50 17.7 °C 9.8 °C 1011.7 hPa NNE 7.4 km/h 7.4 km/h 60 % 0.0 mm
10:55 18.0 °C 10.1 °C 1011.7 hPa NNE 5.6 km/h 6.9 km/h 60 % 0.0 mm
11:00 18.5 °C 10.6 °C 1011.7 hPa NNE 5.6 km/h 5.6 km/h 60 % 0.0 mm
11:05 18.8 °C 10.6 °C 1011.7 hPa ENE 10.3 km/h 10.3 km/h 59 % 0.0 mm
11:10 18.5 °C 10.1 °C 1011.7 hPa ENE 13.0 km/h 13.0 km/h 58 % 0.0 mm
11:15 18.5 °C 10.3 °C 1011.7 hPa ENE 7.4 km/h 7.4 km/h 59 % 0.0 mm
11:20 18.9 °C 10.7 °C 1011.7 hPa ENE 7.4 km/h 7.4 km/h 59 % 0.0 mm
11:25 18.9 °C 10.4 °C 1011.7 hPa NE 9.3 km/h 9.3 km/h 58 % 0.0 mm
11:35 19.6 °C 10.8 °C 1011.7 hPa NNE 9.3 km/h 9.3 km/h 57 % 0.0 mm
11:40 19.6 °C 10.8 °C 1011.7 hPa NNE 5.6 km/h 5.6 km/h 57 % 0.0 mm
11:45 19.5 °C 10.5 °C 1011.7 hPa ENE 9.3 km/h 9.3 km/h 56 % 0.0 mm
11:55 19.6 °C 10.3 °C 1011.7 hPa ENE 11.1 km/h 11.1 km/h 55 % 0.0 mm
12:00 19.8 °C 10.5 °C 1011.7 hPa ENE 9.7 km/h 9.7 km/h 55 % 0.0 mm
12:05 20.2 °C 10.9 °C 1011.7 hPa NE 7.4 km/h 7.4 km/h 55 % 0.0 mm
12:10 20.2 °C 10.6 °C 1011.7 hPa NNE 9.3 km/h 9.3 km/h 54 % 0.0 mm
12:15 20.4 °C 11.1 °C 1011.7 hPa WNW 5.6 km/h 5.6 km/h 55 % 0.0 mm
12:20 20.9 °C 11.5 °C 1011.7 hPa South 3.7 km/h 3.7 km/h 55 % 0.0 mm
12:25 21.4 °C 11.4 °C 1012.8 hPa NNE 5.6 km/h 5.6 km/h 53 % 0.0 mm
12:30 21.7 °C 11.4 °C 1012.8 hPa ESE 6.1 km/h 6.1 km/h 52 % 0.0 mm
12:35 22.0 °C 11.7 °C 1012.8 hPa NE 4.7 km/h 4.7 km/h 52 % 0.0 mm
12:40 22.0 °C 11.4 °C 1011.7 hPa WSW 5.6 km/h 5.6 km/h 51 % 0.0 mm
12:45 21.9 °C 11.3 °C 1011.7 hPa ENE 5.6 km/h 5.6 km/h 51 % 0.0 mm
12:50 22.1 °C 11.2 °C 1011.7 hPa SE 6.9 km/h 6.9 km/h 50 % 0.0 mm
12:55 22.5 °C 11.2 °C 1011.7 hPa ENE 11.1 km/h 11.1 km/h 49 % 0.0 mm
13:00 22.1 °C 10.9 °C 1011.7 hPa ENE 11.1 km/h 11.1 km/h 49 % 0.0 mm
13:05 22.1 °C 11.2 °C 1011.7 hPa NNE 9.5 km/h 9.5 km/h 50 % 0.0 mm
13:10 21.8 °C 10.6 °C 1011.7 hPa East 11.1 km/h 11.1 km/h 49 % 0.0 mm
13:15 22.1 °C 10.9 °C 1011.7 hPa NNE 13.0 km/h 13.0 km/h 49 % 0.0 mm
13:20 22.5 °C 11.2 °C 1011.7 hPa WNW 7.4 km/h 7.4 km/h 49 % 0.0 mm
13:25 23.0 °C 11.4 °C 1011.7 hPa WNW 3.7 km/h 4.7 km/h 48 % 0.0 mm
13:30 23.3 °C 11.3 °C 1011.7 hPa West 3.7 km/h 3.7 km/h 47 % 0.0 mm
13:35 24.0 °C 11.7 °C 1011.7 hPa SSW 13.0 km/h 13.0 km/h 46 % 0.0 mm
13:40 24.2 °C 11.2 °C 1011.7 hPa NNE 13.0 km/h 13.0 km/h 44 % 0.0 mm
13:45 24.3 °C 11.6 °C 1011.7 hPa ENE 9.3 km/h 9.3 km/h 45 % 0.0 mm
13:50 24.1 °C 11.4 °C 1011.7 hPa SSW 3.7 km/h 3.7 km/h 45 % 0.0 mm
13:55 24.6 °C 11.2 °C 1011.7 hPa SW 11.1 km/h 11.1 km/h 43 % 0.0 mm
14:00 24.8 °C 11.0 °C 1011.7 hPa ESE 3.7 km/h 3.7 km/h 42 % 0.0 mm
14:05 24.7 °C 10.6 °C 1011.7 hPa WSW 20.4 km/h 20.4 km/h 41 % 0.0 mm
14:10 24.6 °C 10.4 °C 1011.7 hPa West 15.8 km/h 15.8 km/h 41 % 0.0 mm
14:20 25.3 °C 11.1 °C 1011.7 hPa SW 9.7 km/h 9.7 km/h 41 % 0.0 mm
14:30 25.9 °C 11.3 °C 1011.7 hPa West 5.8 km/h 5.8 km/h 40 % 0.0 mm
14:35 25.6 °C 10.6 °C 1011.7 hPa WSW 10.3 km/h 10.3 km/h 39 % 0.0 mm
14:40 25.7 °C 10.7 °C 1011.7 hPa NNE 5.6 km/h 5.6 km/h 39 % 0.0 mm
14:45 25.6 °C 10.2 °C 1011.7 hPa SW 9.3 km/h 9.3 km/h 38 % 0.0 mm
14:50 26.0 °C 10.9 °C 1011.7 hPa West 9.0 km/h 9.0 km/h 39 % 0.0 mm
14:55 25.8 °C 10.4 °C 1011.7 hPa SW 9.3 km/h 9.3 km/h 38 % 0.0 mm
15:01 25.8 °C 10.4 °C 1011.7 hPa WNW 5.6 km/h 5.6 km/h 38 % 0.0 mm
15:06 25.9 °C 10.5 °C 1011.7 hPa ESE 9.3 km/h 9.3 km/h 38 % 0.0 mm
15:11 25.9 °C 10.1 °C 1011.7 hPa WSW 7.4 km/h 7.4 km/h 37 % 0.0 mm
15:21 25.4 °C 9.2 °C 1011.7 hPa WSW 3.7 km/h 3.7 km/h 36 % 0.0 mm
15:26 25.2 °C 9.1 °C 1011.7 hPa WNW 5.6 km/h 5.6 km/h 36 % 0.0 mm
15:31 25.2 °C 9.1 °C 1011.7 hPa North 5.0 km/h 5.0 km/h 36 % 0.0 mm
15:36 25.0 °C 9.3 °C 1011.7 hPa ENE 7.6 km/h 7.6 km/h 37 % 0.0 mm
15:41 24.6 °C 9.7 °C 1011.7 hPa NNW 5.6 km/h 5.6 km/h 39 % 0.0 mm
15:46 24.6 °C 8.9 °C 1011.7 hPa SW 9.3 km/h 9.3 km/h 37 % 0.0 mm
15:51 24.6 °C 8.6 °C 1011.7 hPa WSW 9.3 km/h 9.3 km/h 36 % 0.0 mm
15:56 25.2 °C 8.7 °C 1011.7 hPa WSW 5.3 km/h 6.4 km/h 35 % 0.0 mm
16:01 25.3 °C 8.7 °C 1011.7 hPa WNW 9.3 km/h 9.3 km/h 35 % 0.0 mm
16:06 25.6 °C 9.4 °C 1011.7 hPa WSW 6.1 km/h 6.1 km/h 36 % 0.0 mm
16:11 25.7 °C 9.1 °C 1011.7 hPa NW 9.3 km/h 9.3 km/h 35 % 0.0 mm
16:16 26.3 °C 10.1 °C 1011.7 hPa West 9.3 km/h 9.3 km/h 36 % 0.0 mm
16:26 26.7 °C 9.9 °C 1011.7 hPa ESE 9.3 km/h 9.3 km/h 35 % 0.0 mm
16:31 26.0 °C 9.8 °C 1011.7 hPa NNE 9.3 km/h 9.3 km/h 36 % 0.0 mm
16:36 25.0 °C 9.3 °C 1011.7 hPa East 11.1 km/h 11.1 km/h 37 % 0.0 mm
16:41 24.4 °C 9.6 °C 1011.7 hPa SE 5.6 km/h 5.6 km/h 39 % 0.0 mm
16:46 24.1 °C 9.7 °C 1011.7 hPa ESE 11.1 km/h 11.1 km/h 40 % 0.0 mm
16:51 23.6 °C 9.2 °C 1011.7 hPa ESE 20.4 km/h 20.4 km/h 40 % 0.0 mm
16:56 23.2 °C 9.2 °C 1011.7 hPa East 14.8 km/h 14.8 km/h 41 % 0.0 mm
17:01 22.8 °C 9.2 °C 1011.7 hPa ESE 13.0 km/h 13.0 km/h 42 % 0.0 mm
17:06 22.6 °C 9.4 °C 1011.7 hPa East 14.8 km/h 14.8 km/h 43 % 0.0 mm
17:11 22.2 °C 9.0 °C 1011.7 hPa ESE 11.1 km/h 11.1 km/h 43 % 0.0 mm
17:16 21.7 °C 8.9 °C 1011.7 hPa East 16.7 km/h 16.7 km/h 44 % 0.0 mm
17:21 21.0 °C 8.6 °C 1011.7 hPa NNE 22.2 km/h 22.2 km/h 45 % 0.0 mm
17:26 20.6 °C 8.9 °C 1011.7 hPa East 13.0 km/h 13.0 km/h 47 % 0.0 mm
17:36 19.9 °C 8.9 °C 1011.7 hPa NE 16.7 km/h 16.7 km/h 49 % 0.0 mm
17:41 19.9 °C 9.2 °C 1013.8 hPa ENE 16.7 km/h 16.7 km/h 50 % 0.0 mm
17:46 19.6 °C 9.2 °C 1013.8 hPa NNE 14.8 km/h 14.8 km/h 51 % 0.0 mm
17:51 18.9 °C 9.4 °C 1013.8 hPa NNE 13.0 km/h 13.0 km/h 54 % 0.0 mm
17:56 18.3 °C 9.4 °C 1013.8 hPa NE 11.1 km/h 11.1 km/h 56 % 0.0 mm
18:01 18.1 °C 9.7 °C 1013.8 hPa ENE 9.3 km/h 9.3 km/h 58 % 0.0 mm
18:06 17.9 °C 9.8 °C 1014.8 hPa ESE 11.1 km/h 11.1 km/h 59 % 0.0 mm
18:11 17.8 °C 9.9 °C 1014.8 hPa ENE 11.1 km/h 11.1 km/h 60 % 0.0 mm
18:16 17.6 °C 10.0 °C 1014.8 hPa East 14.0 km/h 14.0 km/h 61 % 0.0 mm
18:21 17.4 °C 10.1 °C 1014.8 hPa ESE 14.8 km/h 14.8 km/h 62 % 0.0 mm
18:26 17.3 °C 10.4 °C 1013.8 hPa ESE 11.1 km/h 11.1 km/h 64 % 0.0 mm
18:31 17.2 °C 10.6 °C 1013.8 hPa SSE 13.0 km/h 13.0 km/h 65 % 0.0 mm
18:36 17.1 °C 10.7 °C 1013.8 hPa North 6.9 km/h 6.9 km/h 66 % 0.0 mm
18:42 17.0 °C 10.6 °C 1013.8 hPa SE 13.0 km/h 13.0 km/h 66 % 0.0 mm
18:47 17.1 °C 10.7 °C 1013.8 hPa ESE 5.6 km/h 5.6 km/h 66 % 0.0 mm
18:52 17.1 °C 10.7 °C 1013.8 hPa NE 7.4 km/h 7.4 km/h 66 % 0.0 mm
18:57 17.3 °C 10.9 °C 1013.8 hPa ENE 7.4 km/h 7.4 km/h 66 % 0.0 mm
19:02 17.1 °C 11.4 °C 1013.8 hPa NNE 14.8 km/h 14.8 km/h 69 % 0.0 mm
19:07 17.0 °C 11.1 °C 1013.8 hPa NE 11.1 km/h 11.1 km/h 68 % 0.0 mm
19:12 17.1 °C 11.2 °C 1013.8 hPa NE 13.0 km/h 13.0 km/h 68 % 0.0 mm
19:17 17.1 °C 11.2 °C 1013.8 hPa NNE 11.1 km/h 11.1 km/h 68 % 0.0 mm
19:22 17.1 °C 11.2 °C 1013.8 hPa NNE 11.1 km/h 11.1 km/h 68 % 0.0 mm
19:28 17.1 °C 11.2 °C 1013.8 hPa ENE 9.3 km/h 9.3 km/h 68 % 0.0 mm
19:33 17.3 °C 11.1 °C 1013.8 hPa NE 10.0 km/h 10.0 km/h 67 % 0.0 mm
19:43 17.3 °C 11.1 °C 1013.8 hPa NNE 7.4 km/h 7.4 km/h 67 % 0.0 mm
19:48 17.2 °C 11.0 °C 1013.8 hPa NNE 10.3 km/h 10.3 km/h 67 % 0.0 mm
19:53 17.1 °C 10.9 °C 1014.8 hPa ENE 8.7 km/h 8.7 km/h 67 % 0.0 mm
19:58 17.0 °C 10.6 °C 1014.8 hPa ENE 5.6 km/h 5.6 km/h 66 % 0.0 mm
20:03 17.0 °C 10.6 °C 1014.8 hPa ESE 11.1 km/h 11.1 km/h 66 % 0.0 mm
20:08 17.0 °C 10.6 °C 1014.8 hPa NNE 5.6 km/h 5.6 km/h 66 % 0.0 mm
20:13 16.9 °C 10.7 °C 1014.8 hPa East 7.6 km/h 7.6 km/h 67 % 0.0 mm
20:18 16.9 °C 10.7 °C 1014.8 hPa NNE 3.2 km/h 3.2 km/h 67 % 0.0 mm
20:23 16.9 °C 10.7 °C 1014.8 hPa ENE 3.7 km/h 3.7 km/h 67 % 0.0 mm
20:28 16.9 °C 10.7 °C 1014.8 hPa ESE 5.6 km/h 5.6 km/h 67 % 0.0 mm
20:33 16.8 °C 10.6 °C 1014.8 hPa ENE 7.4 km/h 7.4 km/h 67 % 0.0 mm
20:38 16.7 °C 10.8 °C 1014.8 hPa ENE 5.6 km/h 5.6 km/h 68 % 0.0 mm
20:43 16.6 °C 10.7 °C 1014.8 hPa East 7.4 km/h 7.4 km/h 68 % 0.0 mm
20:48 16.5 °C 10.6 °C 1014.8 hPa NE 3.7 km/h 3.7 km/h 68 % 0.0 mm
20:53 16.4 °C 10.7 °C 1014.8 hPa NNE 7.4 km/h 7.4 km/h 69 % 0.0 mm
20:58 16.4 °C 10.7 °C 1014.8 hPa ENE 7.4 km/h 7.4 km/h 69 % 0.0 mm
21:03 16.3 °C 10.6 °C 1014.8 hPa ENE 8.7 km/h 8.7 km/h 69 % 0.0 mm
21:08 16.3 °C 10.6 °C 1014.8 hPa ENE 9.3 km/h 9.3 km/h 69 % 0.0 mm
21:13 16.2 °C 10.5 °C 1014.8 hPa NE 9.3 km/h 9.3 km/h 69 % 0.0 mm
21:18 16.2 °C 10.5 °C 1014.8 hPa ENE 9.3 km/h 9.3 km/h 69 % 0.0 mm
21:23 16.1 °C 10.4 °C 1015.8 hPa NNE 9.3 km/h 9.3 km/h 69 % 0.0 mm
21:28 16.1 °C 10.2 °C 1015.8 hPa NNE 9.3 km/h 9.3 km/h 68 % 0.0 mm
21:33 16.1 °C 10.2 °C 1015.8 hPa NNE 9.3 km/h 9.3 km/h 68 % 0.0 mm
21:38 16.1 °C 10.2 °C 1015.8 hPa ENE 3.7 km/h 3.9 km/h 68 % 0.0 mm
21:43 16.0 °C 10.1 °C 1015.8 hPa ENE 5.6 km/h 5.6 km/h 68 % 0.0 mm
21:53 16.0 °C 10.3 °C 1016.8 hPa ESE 6.1 km/h 6.1 km/h 69 % 0.0 mm
22:03 15.9 °C 10.2 °C 1016.8 hPa East 3.9 km/h 3.9 km/h 69 % 0.0 mm
22:08 15.9 °C 10.2 °C 1014.8 hPa ENE 3.9 km/h 3.9 km/h 69 % 0.0 mm
22:13 15.8 °C 10.1 °C 1014.8 hPa NE 3.7 km/h 3.7 km/h 69 % 0.0 mm
22:18 15.7 °C 10.0 °C 1014.8 hPa SE 3.7 km/h 3.7 km/h 69 % 0.0 mm
22:23 15.6 °C 9.9 °C 1014.8 hPa East 7.4 km/h 7.4 km/h 69 % 0.0 mm
22:28 15.6 °C 9.9 °C 1014.8 hPa ENE 5.6 km/h 5.6 km/h 69 % 0.0 mm
22:33 15.5 °C 9.8 °C 1014.8 hPa ENE 1.9 km/h 1.9 km/h 69 % 0.0 mm
22:38 15.5 °C 10.1 °C 1015.8 hPa East 3.7 km/h 3.7 km/h 70 % 0.0 mm
22:43 15.4 °C 9.9 °C 1015.8 hPa East 2.3 km/h 2.3 km/h 70 % 0.0 mm
22:48 15.4 °C 9.9 °C 1015.8 hPa NE 1.9 km/h   70 % 0.0 mm
22:58 15.2 °C 9.8 °C 1015.8 hPa NW 2.3 km/h 2.3 km/h 70 % 0.0 mm
23:03 15.2 °C 10.0 °C 1015.8 hPa NNW 1.9 km/h   71 % 0.0 mm
23:08 15.1 °C 9.9 °C 1016.8 hPa NE 3.7 km/h   71 % 0.0 mm
23:13 15.1 °C 9.7 °C 1016.8 hPa NW 3.7 km/h   70 % 0.0 mm
23:18 15.0 °C 10.0 °C 1016.8 hPa Calm     72 % 0.0 mm
23:23 15.0 °C 9.8 °C 1015.8 hPa Calm     71 % 0.0 mm
23:28 14.9 °C 9.9 °C 1015.8 hPa ENE 3.9 km/h 3.9 km/h 72 % 0.0 mm
23:33 15.0 °C 10.0 °C 1015.8 hPa NE 1.9 km/h 1.9 km/h 72 % 0.0 mm
23:38 14.9 °C 9.9 °C 1016.8 hPa Calm     72 % 0.0 mm
23:43 14.9 °C 9.9 °C 1016.8 hPa Calm     72 % 0.0 mm
23:48 14.9 °C 9.9 °C 1016.8 hPa Calm     72 % 0.0 mm
23:58 14.8 °C 9.8 °C 1016.8 hPa West 2.6 km/h   72 % 0.0 mm
Meteo Sesrovires
Elogis d' Weather Underground - 3.5 mb

Guio original per  Jim McMurry - jmcmurry@mwt.net Adaptat per a la plantilla per  Wim van der Kuil - Leuven-Template.eu

Trobareu la nostra informacio del temps tambe a:

Weather Underground

AWEKAS